createdAt,value
2018-12-06T00:00:00.775Z,5.80
2018-12-06T00:01:10.254Z,5.80
2018-12-06T00:02:19.185Z,5.80
2018-12-06T00:03:28.709Z,5.90
2018-12-06T00:04:37.711Z,5.90
2018-12-06T00:05:47.063Z,5.90
2018-12-06T00:06:56.400Z,5.90
2018-12-06T00:08:15.888Z,5.90
2018-12-06T00:09:25.299Z,5.90
2018-12-06T00:10:34.416Z,5.90
2018-12-06T00:11:43.571Z,5.80
2018-12-06T00:12:53.190Z,5.80
2018-12-06T00:14:02.615Z,5.90
2018-12-06T00:15:23.138Z,5.90
2018-12-06T00:16:32.373Z,5.90
2018-12-06T00:17:41.727Z,5.90
2018-12-06T00:19:02.931Z,5.90
2018-12-06T00:20:12.322Z,5.90
2018-12-06T00:21:21.529Z,5.90
2018-12-06T00:22:31.699Z,5.90
2018-12-06T00:23:41.033Z,5.90
2018-12-06T00:24:50.420Z,5.90
2018-12-06T00:26:00.026Z,5.90
2018-12-06T00:27:09.317Z,5.90
2018-12-06T00:28:18.256Z,5.90
2018-12-06T00:29:27.835Z,6.00
2018-12-06T00:30:38.074Z,6.00
2018-12-06T00:31:46.982Z,5.90
2018-12-06T00:32:56.449Z,5.90
2018-12-06T00:34:05.477Z,5.90
2018-12-06T00:35:14.621Z,5.80
2018-12-06T00:36:24.207Z,5.80
2018-12-06T00:37:33.428Z,5.90
2018-12-06T00:38:42.604Z,5.90
2018-12-06T00:39:51.998Z,6.00
2018-12-06T00:41:01.659Z,5.90
2018-12-06T00:42:11.217Z,6.00
2018-12-06T00:43:20.578Z,6.10
2018-12-06T00:44:29.737Z,6.10
2018-12-06T00:45:39.155Z,6.10
2018-12-06T00:46:48.185Z,6.10
2018-12-06T00:47:57.185Z,6.10
2018-12-06T00:49:06.007Z,6.00
2018-12-06T00:50:16.304Z,6.00
2018-12-06T00:51:25.753Z,5.90
2018-12-06T00:52:34.765Z,6.00
2018-12-06T00:53:44.725Z,5.90
2018-12-06T00:54:54.967Z,5.90
2018-12-06T00:56:04.793Z,5.90
2018-12-06T00:57:14.144Z,6.00
2018-12-06T00:58:23.247Z,6.10
2018-12-06T00:59:32.495Z,6.00
2018-12-06T01:00:41.855Z,6.10
2018-12-06T01:01:50.917Z,6.10
2018-12-06T01:02:59.970Z,6.10
2018-12-06T01:04:09.551Z,6.10
2018-12-06T01:05:19.055Z,6.10
2018-12-06T01:06:28.645Z,6.10
2018-12-06T01:07:37.776Z,6.10
2018-12-06T01:08:47.856Z,6.10
2018-12-06T01:09:57.128Z,6.20
2018-12-06T01:11:06.242Z,6.10
2018-12-06T01:12:15.626Z,6.00
2018-12-06T01:13:24.855Z,6.00
2018-12-06T01:14:41.657Z,6.00
2018-12-06T01:15:50.869Z,6.00
2018-12-06T01:17:00.070Z,5.80
2018-12-06T01:18:09.415Z,5.80
2018-12-06T01:19:18.588Z,5.90
2018-12-06T01:20:27.921Z,5.80
2018-12-06T01:21:37.076Z,5.90
2018-12-06T01:22:46.726Z,5.90
2018-12-06T01:23:55.895Z,6.00
2018-12-06T01:25:05.655Z,6.00
2018-12-06T01:26:14.956Z,6.00
2018-12-06T01:27:24.577Z,6.00
2018-12-06T01:28:33.820Z,6.00
2018-12-06T01:29:43.337Z,6.00
2018-12-06T01:30:52.596Z,6.00
2018-12-06T01:32:02.746Z,6.10
2018-12-06T01:33:12.149Z,6.10
2018-12-06T01:34:21.169Z,6.10
2018-12-06T01:35:29.842Z,6.00
2018-12-06T01:36:39.535Z,6.00
2018-12-06T01:37:48.606Z,6.10
2018-12-06T01:38:57.857Z,6.20
2018-12-06T01:40:07.207Z,6.20
2018-12-06T01:41:16.489Z,6.20
2018-12-06T01:42:25.685Z,6.30
2018-12-06T01:43:35.606Z,6.20
2018-12-06T01:44:44.695Z,6.20
2018-12-06T01:45:53.846Z,6.20
2018-12-06T01:47:02.789Z,6.30
2018-12-06T01:48:12.444Z,6.30
2018-12-06T01:49:21.665Z,6.30
2018-12-06T01:50:31.627Z,6.30
2018-12-06T01:51:41.266Z,6.30
2018-12-06T01:52:50.212Z,6.30
2018-12-06T01:53:59.090Z,6.30
2018-12-06T01:55:08.388Z,6.30
2018-12-06T01:56:17.737Z,6.40
2018-12-06T01:57:26.975Z,6.30
2018-12-06T01:58:36.307Z,6.30
2018-12-06T01:59:45.932Z,6.30
2018-12-06T02:00:55.295Z,6.30
2018-12-06T02:02:05.364Z,6.30
2018-12-06T02:03:14.723Z,6.30
2018-12-06T02:04:24.278Z,6.30
2018-12-06T02:05:33.444Z,6.40
2018-12-06T02:06:42.578Z,6.40
2018-12-06T02:07:52.996Z,6.40
2018-12-06T02:09:02.489Z,6.40
2018-12-06T02:10:12.121Z,6.40
2018-12-06T02:11:21.352Z,6.40
2018-12-06T02:12:30.440Z,6.50
2018-12-06T02:13:39.742Z,6.40
2018-12-06T02:14:49.885Z,6.40
2018-12-06T02:15:58.883Z,6.30
2018-12-06T02:17:08.354Z,6.30
2018-12-06T02:18:17.570Z,6.40
2018-12-06T02:19:27.147Z,6.40
2018-12-06T02:20:36.077Z,6.50
2018-12-06T02:21:45.574Z,6.40
2018-12-06T02:22:54.625Z,6.40
2018-12-06T02:24:04.585Z,6.30
2018-12-06T02:25:14.215Z,6.40
2018-12-06T02:26:23.565Z,6.40
2018-12-06T02:27:32.744Z,6.50
2018-12-06T02:28:42.313Z,6.60
2018-12-06T02:29:54.762Z,6.60
2018-12-06T02:31:04.002Z,6.60
2018-12-06T02:32:13.614Z,6.50
2018-12-06T02:33:22.763Z,6.50
2018-12-06T02:34:32.273Z,6.50
2018-12-06T02:35:41.981Z,6.40
2018-12-06T02:36:51.587Z,6.40
2018-12-06T02:38:00.975Z,6.50
2018-12-06T02:39:10.371Z,6.50
2018-12-06T02:40:19.716Z,6.60
2018-12-06T02:41:32.172Z,6.60
2018-12-06T02:42:41.701Z,6.70
2018-12-06T02:43:50.900Z,6.70
2018-12-06T02:44:59.759Z,6.70
2018-12-06T02:46:08.698Z,6.70
2018-12-06T02:47:17.402Z,6.70
2018-12-06T02:48:26.228Z,6.70
2018-12-06T02:49:35.919Z,6.80
2018-12-06T02:50:45.246Z,6.70
2018-12-06T02:51:54.275Z,6.70
2018-12-06T02:53:03.489Z,6.80
2018-12-06T02:54:12.535Z,6.80
2018-12-06T02:55:21.756Z,6.90
2018-12-06T02:56:30.678Z,6.80
2018-12-06T02:57:39.882Z,6.80
2018-12-06T02:58:48.964Z,6.80
2018-12-06T02:59:58.535Z,6.80
2018-12-06T03:01:07.366Z,6.70
2018-12-06T03:02:17.225Z,6.80
2018-12-06T03:03:25.894Z,6.80
2018-12-06T03:04:34.984Z,6.90
2018-12-06T03:05:44.131Z,6.90
2018-12-06T03:06:52.817Z,6.90
2018-12-06T03:08:02.263Z,6.90
2018-12-06T03:09:10.985Z,6.90
2018-12-06T03:10:19.839Z,6.90
2018-12-06T03:11:28.695Z,7.00
2018-12-06T03:12:37.496Z,7.00
2018-12-06T03:13:46.431Z,7.00
2018-12-06T03:14:55.459Z,6.90
2018-12-06T03:16:04.342Z,6.90
2018-12-06T03:17:13.106Z,6.90
2018-12-06T03:18:21.863Z,6.90
2018-12-06T03:19:31.441Z,7.00
2018-12-06T03:20:40.608Z,7.00
2018-12-06T03:21:49.331Z,7.10
2018-12-06T03:22:58.113Z,7.10
2018-12-06T03:24:07.253Z,7.10
2018-12-06T03:25:16.353Z,7.10
2018-12-06T03:26:25.834Z,7.10
2018-12-06T03:27:35.063Z,7.10
2018-12-06T03:28:44.386Z,7.10
2018-12-06T03:29:53.383Z,7.10
2018-12-06T03:31:03.159Z,7.10
2018-12-06T03:32:12.265Z,7.20
2018-12-06T03:33:21.338Z,7.10
2018-12-06T03:34:30.718Z,7.20
2018-12-06T03:35:39.628Z,7.10
2018-12-06T03:36:48.684Z,7.10
2018-12-06T03:37:57.663Z,7.20
2018-12-06T03:39:06.640Z,7.20
2018-12-06T03:40:16.338Z,7.20
2018-12-06T03:41:25.004Z,7.20
2018-12-06T03:42:34.055Z,7.20
2018-12-06T03:43:43.599Z,7.20
2018-12-06T03:44:52.489Z,7.20
2018-12-06T03:46:01.711Z,7.20
2018-12-06T03:47:10.552Z,7.20
2018-12-06T03:48:20.011Z,7.20
2018-12-06T03:49:29.189Z,7.20
2018-12-06T03:50:38.491Z,7.20
2018-12-06T03:51:48.094Z,7.30
2018-12-06T03:52:57.555Z,7.30
2018-12-06T03:54:06.791Z,7.30
2018-12-06T03:55:16.265Z,7.20
2018-12-06T03:56:25.488Z,7.30
2018-12-06T03:57:35.076Z,7.30
2018-12-06T03:58:44.295Z,7.40
2018-12-06T03:59:53.486Z,7.40
2018-12-06T04:01:02.719Z,7.40
2018-12-06T04:02:12.174Z,7.40
2018-12-06T04:03:21.567Z,7.40
2018-12-06T04:04:31.501Z,7.40
2018-12-06T04:05:40.640Z,7.40
2018-12-06T04:06:50.301Z,7.40
2018-12-06T04:08:00.039Z,7.40
2018-12-06T04:09:09.121Z,7.40
2018-12-06T04:10:18.652Z,7.40
2018-12-06T04:11:27.611Z,7.40
2018-12-06T04:12:37.142Z,7.40
2018-12-06T04:13:46.462Z,7.40
2018-12-06T04:14:56.013Z,7.40
2018-12-06T04:16:05.174Z,7.40
2018-12-06T04:17:14.674Z,7.40
2018-12-06T04:18:23.906Z,7.40
2018-12-06T04:19:33.517Z,7.40
2018-12-06T04:20:42.795Z,7.40
2018-12-06T04:21:52.619Z,7.50
2018-12-06T04:23:01.428Z,7.50
2018-12-06T04:24:10.979Z,7.50
2018-12-06T04:25:20.309Z,7.60
2018-12-06T04:26:29.655Z,7.50
2018-12-06T04:27:39.359Z,7.60
2018-12-06T04:28:48.559Z,7.60
2018-12-06T04:29:57.966Z,7.70
2018-12-06T04:31:07.378Z,7.70
2018-12-06T04:32:17.575Z,7.60
2018-12-06T04:33:27.197Z,7.60
2018-12-06T04:34:36.279Z,7.70
2018-12-06T04:35:45.799Z,7.70
2018-12-06T04:36:55.906Z,7.70
2018-12-06T04:38:05.278Z,7.70
2018-12-06T04:39:14.518Z,7.70
2018-12-06T04:40:23.808Z,7.70
2018-12-06T04:41:33.058Z,7.60
2018-12-06T04:42:42.449Z,7.60
2018-12-06T04:43:51.879Z,7.70
2018-12-06T04:45:01.889Z,7.70
2018-12-06T04:46:10.984Z,7.80
2018-12-06T04:47:20.128Z,7.70
2018-12-06T04:48:29.353Z,7.80
2018-12-06T04:49:38.801Z,7.80
2018-12-06T04:50:48.070Z,7.80
2018-12-06T04:51:57.511Z,7.80
2018-12-06T04:53:07.472Z,7.80
2018-12-06T04:54:16.462Z,7.80
2018-12-06T04:55:25.560Z,7.80
2018-12-06T04:56:34.960Z,7.80
2018-12-06T04:57:44.360Z,7.80
2018-12-06T04:58:53.734Z,7.80
2018-12-06T05:00:02.921Z,7.80
2018-12-06T05:01:11.941Z,7.80
2018-12-06T05:02:21.360Z,7.80
2018-12-06T05:03:30.730Z,7.80
2018-12-06T05:04:39.994Z,7.80
2018-12-06T05:05:49.400Z,7.80
2018-12-06T05:06:58.603Z,7.80
2018-12-06T05:08:07.716Z,7.80
2018-12-06T05:09:17.005Z,7.90
2018-12-06T05:10:27.000Z,7.90
2018-12-06T05:11:36.476Z,7.90
2018-12-06T05:12:45.666Z,7.90
2018-12-06T05:13:54.871Z,7.90
2018-12-06T05:15:05.071Z,8.00
2018-12-06T05:16:15.672Z,8.00
2018-12-06T05:17:25.092Z,8.00
2018-12-06T05:18:34.803Z,8.10
2018-12-06T05:19:44.043Z,8.00
2018-12-06T05:20:53.402Z,8.00
2018-12-06T05:22:02.892Z,8.00
2018-12-06T05:23:12.385Z,8.00
2018-12-06T05:24:21.629Z,8.00
2018-12-06T05:25:30.785Z,8.00
2018-12-06T05:26:40.163Z,8.00
2018-12-06T05:27:49.674Z,8.00
2018-12-06T05:28:58.826Z,8.00
2018-12-06T05:30:08.518Z,8.10
2018-12-06T05:31:17.786Z,8.10
2018-12-06T05:32:27.324Z,8.10
2018-12-06T05:33:36.343Z,8.10
2018-12-06T05:34:45.635Z,8.00
2018-12-06T05:35:54.872Z,8.00
2018-12-06T05:37:04.842Z,8.00
2018-12-06T05:38:13.893Z,8.00
2018-12-06T05:39:23.613Z,8.10
2018-12-06T05:40:33.001Z,8.10
2018-12-06T05:41:42.552Z,8.20
2018-12-06T05:42:51.993Z,8.20
2018-12-06T05:44:00.820Z,8.20
2018-12-06T05:45:10.471Z,8.30
2018-12-06T05:46:19.981Z,8.30
2018-12-06T05:47:29.876Z,8.30
2018-12-06T05:48:39.434Z,8.20
2018-12-06T05:49:49.128Z,8.20
2018-12-06T05:50:58.712Z,8.20
2018-12-06T05:52:07.639Z,8.10
2018-12-06T05:53:16.754Z,8.20
2018-12-06T05:54:25.990Z,8.20
2018-12-06T05:55:35.681Z,8.20
2018-12-06T05:56:45.140Z,8.20
2018-12-06T05:57:54.688Z,8.20
2018-12-06T05:59:03.931Z,8.20
2018-12-06T06:00:13.389Z,8.20
2018-12-06T06:01:22.669Z,8.20
2018-12-06T06:02:32.579Z,8.10
2018-12-06T06:03:41.655Z,8.20
2018-12-06T06:04:52.568Z,8.20
2018-12-06T06:06:01.919Z,8.30
2018-12-06T06:07:12.018Z,8.30
2018-12-06T06:08:21.471Z,8.30
2018-12-06T06:09:32.112Z,8.30
2018-12-06T06:10:41.447Z,8.30
2018-12-06T06:11:50.888Z,8.20
2018-12-06T06:13:00.478Z,8.20
2018-12-06T06:14:09.996Z,8.20
2018-12-06T06:15:19.656Z,8.20
2018-12-06T06:16:32.122Z,8.20
2018-12-06T06:18:04.140Z,8.20
2018-12-06T06:19:13.118Z,8.20
2018-12-06T06:20:22.546Z,8.20
2018-12-06T06:21:31.966Z,8.30
2018-12-06T06:22:41.446Z,8.20
2018-12-06T06:23:50.770Z,8.30
2018-12-06T06:25:00.085Z,8.20
2018-12-06T06:26:09.739Z,8.30
2018-12-06T06:27:19.216Z,8.30
2018-12-06T06:28:29.128Z,8.20
2018-12-06T06:29:38.234Z,8.20
2018-12-06T06:30:47.364Z,8.20
2018-12-06T06:31:56.905Z,8.20
2018-12-06T06:33:06.494Z,8.20
2018-12-06T06:34:15.746Z,8.10
2018-12-06T06:35:25.989Z,8.10
2018-12-06T06:36:35.402Z,8.20
2018-12-06T06:37:44.760Z,8.20
2018-12-06T06:38:54.255Z,8.20
2018-12-06T06:40:04.106Z,8.20
2018-12-06T06:41:13.891Z,8.20
2018-12-06T06:42:22.943Z,8.20
2018-12-06T06:43:32.975Z,8.30
2018-12-06T06:44:42.176Z,8.30
2018-12-06T06:45:51.422Z,8.30
2018-12-06T06:47:00.900Z,8.30
2018-12-06T06:48:10.185Z,8.40
2018-12-06T06:49:19.414Z,8.40
2018-12-06T06:50:28.924Z,8.40
2018-12-06T06:51:38.355Z,8.40
2018-12-06T06:52:47.525Z,8.40
2018-12-06T06:53:56.975Z,8.40
2018-12-06T06:55:06.706Z,8.40
2018-12-06T06:56:15.985Z,8.50
2018-12-06T06:57:25.144Z,8.60
2018-12-06T06:58:34.701Z,8.60
2018-12-06T06:59:44.023Z,8.50
2018-12-06T07:00:53.526Z,8.40
2018-12-06T07:02:02.744Z,8.40
2018-12-06T07:03:12.066Z,8.40
2018-12-06T07:04:21.676Z,8.40
2018-12-06T07:05:30.714Z,8.40
2018-12-06T07:06:40.014Z,8.40
2018-12-06T07:07:50.422Z,8.50
2018-12-06T07:08:59.667Z,8.50
2018-12-06T07:10:08.941Z,8.40
2018-12-06T07:11:18.379Z,8.40
2018-12-06T07:12:27.661Z,8.40
2018-12-06T07:13:37.132Z,8.40
2018-12-06T07:14:47.500Z,8.40
2018-12-06T07:15:59.473Z,8.50
2018-12-06T07:17:09.320Z,8.50
2018-12-06T07:18:18.342Z,8.50
2018-12-06T07:19:27.790Z,8.50
2018-12-06T07:20:38.601Z,8.50
2018-12-06T07:21:47.710Z,8.50
2018-12-06T07:22:57.609Z,8.50
2018-12-06T07:24:07.440Z,8.50
2018-12-06T07:25:16.680Z,8.50
2018-12-06T07:26:25.992Z,8.50
2018-12-06T07:27:35.570Z,8.50
2018-12-06T07:28:44.489Z,8.50
2018-12-06T07:29:53.748Z,8.50
2018-12-06T07:31:03.206Z,8.50
2018-12-06T07:32:12.669Z,8.50
2018-12-06T07:33:22.029Z,8.50
2018-12-06T07:34:31.207Z,8.60
2018-12-06T07:35:40.940Z,8.60
2018-12-06T07:36:49.887Z,8.60
2018-12-06T07:37:58.976Z,8.60
2018-12-06T07:39:08.380Z,8.70
2018-12-06T07:40:18.368Z,8.70
2018-12-06T07:41:27.717Z,8.70
2018-12-06T07:42:36.828Z,8.70
2018-12-06T07:43:46.700Z,8.80
2018-12-06T07:44:55.910Z,8.90
2018-12-06T07:46:09.853Z,8.90
2018-12-06T07:47:19.246Z,8.80
2018-12-06T07:48:29.432Z,8.80
2018-12-06T07:49:38.717Z,8.80
2018-12-06T07:50:49.073Z,8.80
2018-12-06T07:51:58.198Z,8.90
2018-12-06T07:53:07.255Z,8.90
2018-12-06T07:54:16.331Z,8.90
2018-12-06T07:55:25.888Z,9.00
2018-12-06T07:56:35.025Z,9.00
2018-12-06T07:57:43.995Z,9.00
2018-12-06T07:58:53.798Z,9.00
2018-12-06T08:00:03.680Z,8.90
2018-12-06T08:01:12.676Z,8.90
2018-12-06T08:02:21.984Z,8.90
2018-12-06T08:03:31.264Z,9.00
2018-12-06T08:04:40.897Z,9.00
2018-12-06T08:05:49.987Z,9.00
2018-12-06T08:06:59.044Z,9.00
2018-12-06T08:08:08.564Z,9.10
2018-12-06T08:09:17.647Z,9.10
2018-12-06T08:10:28.676Z,9.10
2018-12-06T08:11:42.228Z,9.20
2018-12-06T08:12:51.698Z,9.20
2018-12-06T08:14:01.001Z,9.10
2018-12-06T08:15:10.362Z,9.10
2018-12-06T08:16:19.320Z,9.10
2018-12-06T08:17:29.979Z,9.20
2018-12-06T08:18:39.815Z,9.20
2018-12-06T08:19:48.830Z,9.10
2018-12-06T08:20:58.296Z,9.10
2018-12-06T08:22:07.466Z,9.10
2018-12-06T08:23:17.500Z,9.10
2018-12-06T08:24:26.459Z,9.20
2018-12-06T08:25:35.964Z,9.20
2018-12-06T08:26:45.529Z,9.20
2018-12-06T08:27:54.721Z,9.20
2018-12-06T08:29:04.110Z,9.20
2018-12-06T08:30:13.677Z,9.20
2018-12-06T08:31:22.776Z,9.20
2018-12-06T08:32:32.293Z,9.20
2018-12-06T08:33:41.786Z,9.20
2018-12-06T08:34:50.896Z,9.10
2018-12-06T08:36:00.326Z,9.10
2018-12-06T08:37:09.739Z,9.20
2018-12-06T08:38:18.678Z,9.10
2018-12-06T08:39:28.017Z,9.20
2018-12-06T08:40:37.228Z,9.20
2018-12-06T08:41:46.322Z,9.10
2018-12-06T08:42:55.678Z,9.10
2018-12-06T08:44:04.631Z,9.20
2018-12-06T08:45:14.231Z,9.10
2018-12-06T08:46:24.422Z,9.20
2018-12-06T08:47:33.972Z,9.30
2018-12-06T08:48:43.407Z,9.30
2018-12-06T08:49:52.632Z,9.30
2018-12-06T08:51:01.995Z,9.30
2018-12-06T08:52:11.515Z,9.30
2018-12-06T08:53:20.872Z,9.30
2018-12-06T08:54:30.786Z,9.30
2018-12-06T08:55:39.967Z,9.30
2018-12-06T08:56:49.237Z,9.30
2018-12-06T08:57:58.719Z,9.30
2018-12-06T08:59:08.362Z,9.40
2018-12-06T09:00:17.374Z,9.40
2018-12-06T09:01:26.270Z,9.30
2018-12-06T09:02:35.641Z,9.30
2018-12-06T09:03:44.761Z,9.30
2018-12-06T09:04:53.884Z,9.30
2018-12-06T09:06:02.779Z,9.30
2018-12-06T09:07:12.052Z,9.40
2018-12-06T09:08:21.875Z,9.40
2018-12-06T09:09:31.073Z,9.40
2018-12-06T09:10:40.701Z,9.40
2018-12-06T09:11:50.179Z,9.40
2018-12-06T09:12:59.134Z,9.40
2018-12-06T09:14:08.752Z,9.50
2018-12-06T09:15:17.843Z,9.50
2018-12-06T09:16:28.023Z,9.50
2018-12-06T09:17:37.271Z,9.50
2018-12-06T09:18:46.200Z,9.50
2018-12-06T09:19:55.391Z,9.50
2018-12-06T09:21:05.258Z,9.60
2018-12-06T09:22:14.423Z,9.60
2018-12-06T09:23:23.629Z,9.60
2018-12-06T09:24:32.868Z,9.50
2018-12-06T09:25:42.148Z,9.60
2018-12-06T09:26:58.475Z,9.60
2018-12-06T09:28:02.597Z,9.60
2018-12-06T09:29:12.392Z,9.60
2018-12-06T09:30:22.578Z,9.60
2018-12-06T09:31:31.576Z,9.60
2018-12-06T09:32:40.967Z,9.60
2018-12-06T09:34:05.226Z,9.60
2018-12-06T09:35:14.775Z,9.70
2018-12-06T09:36:23.686Z,9.70
2018-12-06T09:37:33.112Z,9.60
2018-12-06T09:38:42.436Z,9.60
2018-12-06T09:39:59.227Z,9.60
2018-12-06T09:41:08.230Z,9.60
2018-12-06T09:42:17.470Z,9.60
2018-12-06T09:43:27.073Z,9.70
2018-12-06T09:44:36.133Z,9.60
2018-12-06T09:45:46.492Z,9.60
2018-12-06T09:46:55.755Z,9.60
2018-12-06T09:48:05.906Z,9.60
2018-12-06T09:49:15.703Z,9.70
2018-12-06T09:50:25.005Z,9.70
2018-12-06T09:51:35.294Z,9.70
2018-12-06T09:52:44.502Z,9.70
2018-12-06T09:53:53.951Z,9.70
2018-12-06T09:55:03.581Z,9.70
2018-12-06T09:56:12.923Z,9.80
2018-12-06T09:57:22.130Z,9.80
2018-12-06T09:58:31.523Z,9.80
2018-12-06T09:59:42.123Z,9.80
2018-12-06T10:00:51.320Z,9.90
2018-12-06T10:02:00.885Z,9.90
2018-12-06T10:03:10.050Z,9.90
2018-12-06T10:04:18.973Z,9.80
2018-12-06T10:05:28.371Z,9.90
2018-12-06T10:06:37.633Z,9.90
2018-12-06T10:07:46.760Z,9.90
2018-12-06T10:08:57.550Z,9.90
2018-12-06T10:10:07.161Z,9.90
2018-12-06T10:11:16.481Z,10.00
2018-12-06T10:12:25.889Z,10.10
2018-12-06T10:13:34.801Z,10.10
2018-12-06T10:14:43.770Z,10.10
2018-12-06T10:15:53.361Z,10.10
2018-12-06T10:17:02.605Z,10.10
2018-12-06T10:18:11.481Z,10.10
2018-12-06T10:19:20.814Z,10.10
2018-12-06T10:20:30.050Z,10.10
2018-12-06T10:21:39.329Z,10.10
2018-12-06T10:22:48.451Z,10.00
2018-12-06T10:23:57.837Z,10.00
2018-12-06T10:25:07.359Z,10.00
2018-12-06T10:26:17.808Z,10.00
2018-12-06T10:27:28.336Z,10.10
2018-12-06T10:28:37.827Z,10.10
2018-12-06T10:29:47.349Z,10.10
2018-12-06T10:30:56.562Z,10.10
2018-12-06T10:32:05.716Z,10.10
2018-12-06T10:33:14.777Z,10.00
2018-12-06T10:34:24.858Z,10.00
2018-12-06T10:35:35.466Z,10.10
2018-12-06T10:36:44.751Z,10.10
2018-12-06T10:37:54.594Z,10.20
2018-12-06T10:39:05.845Z,10.30
2018-12-06T10:40:15.266Z,10.30
2018-12-06T10:41:25.421Z,10.30
2018-12-06T10:42:34.972Z,10.30
2018-12-06T10:43:44.438Z,10.30
2018-12-06T10:44:53.987Z,10.40
2018-12-06T10:46:03.173Z,10.30
2018-12-06T10:47:12.511Z,10.30
2018-12-06T10:48:22.271Z,10.30
2018-12-06T10:49:32.440Z,10.30
2018-12-06T10:50:41.935Z,10.20
2018-12-06T10:51:51.169Z,10.20
2018-12-06T10:53:00.697Z,10.20
2018-12-06T10:54:10.170Z,10.20
2018-12-06T10:55:19.988Z,10.20
2018-12-06T10:56:29.278Z,10.30
2018-12-06T10:57:38.859Z,10.30
2018-12-06T10:58:48.359Z,10.20
2018-12-06T10:59:59.701Z,10.20
2018-12-06T11:01:08.900Z,10.20
2018-12-06T11:02:28.169Z,10.20
2018-12-06T11:03:42.948Z,10.30
2018-12-06T11:04:52.272Z,10.20
2018-12-06T11:06:02.280Z,10.20
2018-12-06T11:07:11.859Z,10.20
2018-12-06T11:08:20.958Z,10.30
2018-12-06T11:09:30.095Z,10.30
2018-12-06T11:10:39.313Z,10.30
2018-12-06T11:11:49.456Z,10.20
2018-12-06T11:12:59.321Z,10.20
2018-12-06T11:14:08.806Z,10.20
2018-12-06T11:15:18.107Z,10.30
2018-12-06T11:16:27.416Z,10.30
2018-12-06T11:17:37.005Z,10.30
2018-12-06T11:18:46.135Z,10.20
2018-12-06T11:19:55.203Z,10.20
2018-12-06T11:21:43.015Z,10.20
2018-12-06T11:22:53.244Z,10.20
2018-12-06T11:24:04.182Z,10.20
2018-12-06T11:25:13.345Z,10.30
2018-12-06T11:26:22.553Z,10.30
2018-12-06T11:27:32.185Z,10.30
2018-12-06T11:28:43.062Z,10.30
2018-12-06T11:29:52.759Z,10.30
2018-12-06T11:31:02.109Z,10.30
2018-12-06T11:32:11.213Z,10.30
2018-12-06T11:33:26.678Z,10.30
2018-12-06T11:34:36.532Z,10.30
2018-12-06T11:35:45.854Z,10.40
2018-12-06T11:36:55.064Z,10.40
2018-12-06T11:38:04.848Z,10.30
2018-12-06T11:39:14.118Z,10.30
2018-12-06T11:40:23.934Z,10.30
2018-12-06T11:41:33.242Z,10.30
2018-12-06T11:42:42.776Z,10.40
2018-12-06T11:43:52.144Z,10.40
2018-12-06T11:45:01.114Z,10.40
2018-12-06T11:46:10.915Z,10.40
2018-12-06T11:47:20.545Z,10.40
2018-12-06T11:48:29.706Z,10.30
2018-12-06T11:49:39.447Z,10.30
2018-12-06T11:50:49.686Z,10.20
2018-12-06T11:51:59.057Z,10.20
2018-12-06T11:53:08.190Z,10.30
2018-12-06T11:54:17.476Z,10.30
2018-12-06T11:55:27.790Z,10.30
2018-12-06T11:56:37.488Z,10.30
2018-12-06T11:57:48.357Z,10.40
2018-12-06T11:59:00.404Z,10.40
2018-12-06T12:00:09.838Z,10.40
2018-12-06T12:01:18.993Z,10.40
2018-12-06T12:02:28.082Z,10.40
2018-12-06T12:03:40.451Z,10.50
2018-12-06T12:04:50.734Z,10.50
2018-12-06T12:06:00.169Z,10.60
2018-12-06T12:07:09.259Z,10.50
2018-12-06T12:08:18.401Z,10.50
2018-12-06T12:09:27.837Z,10.50
2018-12-06T12:10:38.218Z,10.60
2018-12-06T12:11:47.248Z,10.60
2018-12-06T12:12:57.475Z,10.60
2018-12-06T12:14:06.729Z,10.60
2018-12-06T12:15:16.288Z,10.60
2018-12-06T12:16:26.096Z,10.60
2018-12-06T12:17:35.531Z,10.60
2018-12-06T12:18:45.292Z,10.60
2018-12-06T12:19:55.734Z,10.70
2018-12-06T12:21:04.810Z,10.70
2018-12-06T12:22:14.319Z,10.70
2018-12-06T12:23:23.569Z,10.70
2018-12-06T12:24:32.563Z,10.70
2018-12-06T12:25:41.739Z,10.70
2018-12-06T12:26:50.761Z,10.70
2018-12-06T12:28:00.316Z,10.80
2018-12-06T12:29:09.720Z,10.90
2018-12-06T12:30:19.025Z,11.00
2018-12-06T12:31:28.515Z,11.10
2018-12-06T12:32:37.619Z,11.00
2018-12-06T12:33:47.512Z,11.00
2018-12-06T12:34:56.650Z,11.00
2018-12-06T12:36:06.151Z,11.00
2018-12-06T12:37:15.231Z,11.00
2018-12-06T12:38:24.993Z,11.10
2018-12-06T12:39:34.220Z,11.10
2018-12-06T12:40:43.310Z,11.20
2018-12-06T12:41:52.341Z,11.30
2018-12-06T12:43:01.862Z,11.40
2018-12-06T12:44:11.361Z,11.40
2018-12-06T12:45:20.435Z,11.50
2018-12-06T12:46:31.561Z,11.60
2018-12-06T12:47:40.874Z,11.70
2018-12-06T12:48:50.052Z,11.80
2018-12-06T12:50:01.031Z,11.90
2018-12-06T12:51:10.481Z,11.90
2018-12-06T12:52:19.731Z,11.80
2018-12-06T12:53:30.609Z,11.80
2018-12-06T12:54:40.761Z,11.80
2018-12-06T12:55:50.197Z,11.80
2018-12-06T12:56:58.938Z,11.70
2018-12-06T12:58:08.092Z,11.60
2018-12-06T12:59:17.095Z,11.50
2018-12-06T13:00:25.877Z,11.50
2018-12-06T13:01:35.149Z,11.50
2018-12-06T13:02:44.967Z,11.70
2018-12-06T13:03:54.660Z,11.60
2018-12-06T13:05:04.361Z,11.60
2018-12-06T13:06:15.940Z,11.70
2018-12-06T13:07:24.865Z,11.70
2018-12-06T13:08:34.197Z,11.80
2018-12-06T13:09:43.625Z,11.90
2018-12-06T13:10:53.017Z,11.80
2018-12-06T13:12:02.349Z,11.90
2018-12-06T13:13:11.588Z,12.00
2018-12-06T13:14:20.758Z,12.20
2018-12-06T13:15:30.123Z,12.30
2018-12-06T13:16:39.700Z,12.20
2018-12-06T13:17:48.896Z,12.10
2018-12-06T13:18:57.705Z,12.00
2018-12-06T13:20:07.063Z,12.00
2018-12-06T13:21:16.306Z,12.00
2018-12-06T13:22:25.625Z,12.10
2018-12-06T13:23:36.495Z,12.20
2018-12-06T13:24:46.105Z,12.20
2018-12-06T13:25:55.647Z,12.20
2018-12-06T13:27:05.257Z,12.20
2018-12-06T13:28:14.296Z,12.30
2018-12-06T13:29:23.479Z,12.70
2018-12-06T13:30:33.875Z,13.00
2018-12-06T13:31:43.354Z,12.90
2018-12-06T13:32:52.573Z,12.60
2018-12-06T13:34:01.724Z,12.50
2018-12-06T13:35:11.253Z,12.40
2018-12-06T13:36:20.369Z,12.30
2018-12-06T13:37:29.916Z,12.30
2018-12-06T13:38:39.384Z,12.20
2018-12-06T13:39:49.507Z,12.20
2018-12-06T13:40:58.928Z,12.30
2018-12-06T13:42:08.533Z,12.30
2018-12-06T13:43:18.263Z,12.40
2018-12-06T13:44:27.546Z,12.30
2018-12-06T13:45:37.042Z,12.30
2018-12-06T13:46:46.624Z,12.20
2018-12-06T13:47:55.896Z,12.30
2018-12-06T13:49:05.419Z,12.20
2018-12-06T13:50:14.752Z,12.00
2018-12-06T13:51:24.484Z,12.00
2018-12-06T13:52:33.558Z,12.10
2018-12-06T13:53:43.885Z,12.10
2018-12-06T13:54:53.345Z,12.10
2018-12-06T13:56:02.383Z,12.00
2018-12-06T13:57:11.794Z,11.80
2018-12-06T13:58:21.305Z,11.80
2018-12-06T13:59:30.674Z,11.70
2018-12-06T14:00:40.172Z,11.70
2018-12-06T14:01:49.585Z,11.70
2018-12-06T14:02:58.546Z,11.70
2018-12-06T14:04:07.888Z,11.50
2018-12-06T14:05:17.250Z,11.50
2018-12-06T14:06:26.921Z,11.50
2018-12-06T14:07:36.157Z,11.50
2018-12-06T14:08:45.378Z,11.40
2018-12-06T14:09:54.477Z,11.40
2018-12-06T14:11:04.160Z,11.40
2018-12-06T14:12:13.410Z,11.40
2018-12-06T14:13:23.743Z,11.40
2018-12-06T14:14:33.358Z,11.40
2018-12-06T14:15:44.258Z,11.30
2018-12-06T14:16:53.569Z,11.40
2018-12-06T14:18:03.001Z,11.40
2018-12-06T14:19:12.379Z,11.40
2018-12-06T14:20:21.390Z,11.40
2018-12-06T14:21:30.408Z,11.40
2018-12-06T14:22:39.754Z,11.30
2018-12-06T14:23:49.289Z,11.30
2018-12-06T14:24:58.577Z,11.30
2018-12-06T14:26:07.483Z,11.20
2018-12-06T14:27:16.709Z,11.20
2018-12-06T14:28:26.170Z,11.20
2018-12-06T14:29:35.431Z,11.30
2018-12-06T14:30:44.512Z,11.20
2018-12-06T14:31:53.841Z,11.20
2018-12-06T14:33:03.080Z,11.20
2018-12-06T14:34:12.082Z,11.20
2018-12-06T14:35:21.479Z,11.10
2018-12-06T14:36:31.440Z,11.10
2018-12-06T14:37:42.191Z,11.20
2018-12-06T14:38:51.424Z,11.20
2018-12-06T14:40:01.834Z,11.20
2018-12-06T14:41:11.003Z,11.30
2018-12-06T14:42:20.107Z,11.30
2018-12-06T14:43:29.293Z,11.30
2018-12-06T14:44:38.454Z,11.20
2018-12-06T14:45:48.276Z,11.20
2018-12-06T14:46:58.772Z,11.10
2018-12-06T14:48:09.231Z,11.10
2018-12-06T14:49:18.574Z,11.00
2018-12-06T14:50:28.514Z,11.00
2018-12-06T14:51:37.615Z,11.00
2018-12-06T14:52:46.965Z,10.90
2018-12-06T14:53:56.101Z,11.00
2018-12-06T14:55:05.783Z,10.90
2018-12-06T14:56:14.892Z,10.90
2018-12-06T14:57:24.274Z,10.90
2018-12-06T14:58:34.156Z,10.90
2018-12-06T14:59:43.363Z,10.90
2018-12-06T15:00:52.777Z,10.90
2018-12-06T15:02:02.262Z,10.90
2018-12-06T15:03:11.552Z,10.80
2018-12-06T15:04:20.893Z,10.90
2018-12-06T15:05:30.058Z,10.90
2018-12-06T15:06:39.074Z,11.00
2018-12-06T15:07:48.200Z,10.90
2018-12-06T15:08:57.422Z,10.80
2018-12-06T15:10:07.098Z,10.80
2018-12-06T15:11:16.705Z,10.90
2018-12-06T15:12:26.138Z,10.90
2018-12-06T15:13:36.326Z,10.90
2018-12-06T15:14:46.008Z,10.80
2018-12-06T15:15:55.785Z,10.80